Flight Track Log - Related Links

Times and Time Zones

All times are in EST time to prevent confusion due to time zone crossing. See the RPA3331 flight status page for this flight to view local times or setup timezone preferences in your user account.

Time Position Orientation Groundspeed Altitude Reporting Facility
EST Latitude Longitude Course Direction KTS MPH feet Rate Location/Type
Sat 04:27:12 PM 35.1972 -80.9381 88° East 144 166 1,600  Level Atlanta Center
Sat 04:28:13 PM 35.1467 -80.9272 170° South 200 230 3,600 2,462 Climbing Atlanta Center
Sat 04:29:09 PM 35.0994 -80.8731 137° Southeast 278 320 6,400 2,676 Climbing Atlanta Center
Sat 04:29:27 PM 35.0928 -80.8581 119° Southeast 287 330 6,900 1,231 Climbing Atlanta Center
Sat 04:30:27 PM 35.0986 -80.7639 86° East 276 318 8,000 1,500 Climbing Atlanta Center
Sat 04:31:27 PM 35.1086 -80.6644 83° East 276 318 9,900 2,200 Climbing Atlanta Center
Sat 04:32:00 PM 35.0354 -80.3478 88° East  Level Estimated
Sat 04:32:27 PM 35.0889 -80.5589 103° East 288 331 12,400  Level Atlanta Center
Sat 04:33:27 PM 35.0606 -80.4433 107° East 323 372 14,800 1,736 Climbing Atlanta Center
Sat 04:35:06 PM 35.0100 -80.2400 107° East 390 449 17,000 830 Climbing Washington Center
Sat 04:36:06 PM 34.9739 -80.0936 107° East 405 466 17,000  Level Washington Center
Sat 04:37:07 PM 34.9428 -79.9703 107° East 410 472 17,000  Level Washington Center
Sat 04:38:07 PM 34.9086 -79.8189 105° East 416 479 17,000  Level Washington Center
Sat 04:39:05 PM 34.8711 -79.7006 111° Southeast 422 486 17,000  Level Washington Center
Sat 04:40:06 PM 34.8239 -79.5514 111° Southeast 422 486 17,000  Level Washington Center
Sat 04:41:08 PM 34.7783 -79.4178 113° Southeast 422 486 17,000  Level Washington Center
Sat 04:42:05 PM 34.7344 -79.2842 112° Southeast 422 486 17,000  Level Washington Center
Sat 04:43:06 PM 34.6906 -79.1508 112° Southeast 422 486 17,000 -347 Level Washington Center
Sat 04:44:06 PM 34.6483 -79.0203 111° Southeast 422 486 16,300 -908 Descending Washington Center
Sat 04:45:05 PM 34.6061 -78.8925 112° Southeast 414 476 15,200 -992 Descending Washington Center
Sat 04:46:07 PM 34.5636 -78.7672 112° Southeast 407 468 14,300 -1,230 Descending Washington Center
Sat 04:47:07 PM 34.5231 -78.6472 112° Southeast 394 453 12,700 -1,678 Descending Washington Center
Sat 04:48:05 PM 34.4842 -78.5272 111° Southeast 383 441 11,000 -1,017 Descending Washington Center
Sat 04:49:05 PM 34.4450 -78.4200 114° Southeast 370 426 10,700 -843 Descending Washington Center
Sat 04:50:06 PM 34.4119 -78.3233 112° Southeast 333 383 9,300 -1,686 Descending Washington Center
Sat 04:51:06 PM 34.3825 -78.2342 112° Southeast 305 351 7,300 -1,934 Descending Washington Center
Sat 04:52:07 PM 34.3383 -78.1600 126° Southeast 282 325 5,400 -2,067 Descending Washington Center
Sat 04:53:05 PM 34.2939 -78.0906 128° Southeast 270 311 3,200 -1,412 Descending Washington Center
Sat 04:54:06 PM 34.2533 -78.0292 129° Southeast 250 288 2,600 -885 Descending Washington Center
Sat 04:55:07 PM 34.2272 -77.9806 123° Southeast 209 241 1,400 -992 Descending Washington Center
Sat 04:56:07 PM 34.2406 -77.9408 68° East 140 161 600 -800 Descending Washington Center

Login

Don't have an account? Register now (free) for customized features, flight alerts, and more!